East Montpelier, Vermont
Current Conditions -  °F | °C
As of 3:51 AM on Thursday 23 Oct 2014 (Local Time) from KMPV Reporting Station
Light Rain Light Rain  
Wind Chill: 38°   Ceiling: 1800
Heat Index: 43°   Visibility: 10mi
Dew Point: 39°   Wind: 9mph
Humidity: 86%   Direction: 350°N
Pressure: 30"   Gusts: NA
Location:  44.27°N, 72.49°W
Report Text: KMPV 230751Z AUTO 35008KT 10SM -RA OVC018 06/04 A3000 RMK AO2 SLP166 P0001 T00610039 $
Loading
Personal Weather Stations






























Interactive Weather Map New forecast layout! Learn more

10-Day Weather Forecast

Advertisements
Track Severe Weather on mobile